sensor_id;sensor_type;location;lat;lon;timestamp;pressure;altitude;pressure_sealevel;temperature;humidity
22181;BME280;11256;50.830;12.834;2023-04-24T00:04:47;96403.66;;;15.99;54.92
22181;BME280;11256;50.830;12.834;2023-04-24T00:09:48;96401.19;;;15.94;54.98
22181;BME280;11256;50.830;12.834;2023-04-24T00:14:49;96396.28;;;15.88;55.49
22181;BME280;11256;50.830;12.834;2023-04-24T00:19:49;96402.91;;;15.87;55.33
22181;BME280;11256;50.830;12.834;2023-04-24T00:24:58;96380.38;;;15.78;55.48
22181;BME280;11256;50.830;12.834;2023-04-24T00:29:58;96399.25;;;15.83;55.76
22181;BME280;11256;50.830;12.834;2023-04-24T00:34:59;96396.75;;;15.78;56.50
22181;BME280;11256;50.830;12.834;2023-04-24T00:39:59;96386.06;;;15.73;56.10
22181;BME280;11256;50.830;12.834;2023-04-24T00:45:00;96387.94;;;15.69;56.20
22181;BME280;11256;50.830;12.834;2023-04-24T00:50:02;96383.03;;;15.62;55.94
22181;BME280;11256;50.830;12.834;2023-04-24T00:55:03;96384.53;;;15.60;56.05
22181;BME280;11256;50.830;12.834;2023-04-24T01:00:05;96396.34;;;15.64;56.29
22181;BME280;11256;50.830;12.834;2023-04-24T01:05:08;96378.84;;;15.53;57.35
22181;BME280;11256;50.830;12.834;2023-04-24T01:10:08;96365.19;;;15.41;56.27
22181;BME280;11256;50.830;12.834;2023-04-24T01:15:09;96374.28;;;15.45;56.30
22181;BME280;11256;50.830;12.834;2023-04-24T01:20:10;96371.34;;;15.38;56.87
22181;BME280;11256;50.830;12.834;2023-04-24T01:25:10;96377.47;;;15.35;56.69
22181;BME280;11256;50.830;12.834;2023-04-24T01:30:11;96376.38;;;15.36;56.72
22181;BME280;11256;50.830;12.834;2023-04-24T01:35:12;96377.47;;;15.35;56.89
22181;BME280;11256;50.830;12.834;2023-04-24T01:40:13;96369.97;;;15.20;57.33
22181;BME280;11256;50.830;12.834;2023-04-24T01:45:13;96385.00;;;15.26;57.51
22181;BME280;11256;50.830;12.834;2023-04-24T01:50:14;96378.41;;;15.15;57.12
22181;BME280;11256;50.830;12.834;2023-04-24T01:55:14;96388.16;;;15.16;57.05
22181;BME280;11256;50.830;12.834;2023-04-24T02:00:15;96392.47;;;15.17;57.36
22181;BME280;11256;50.830;12.834;2023-04-24T02:05:15;96386.81;;;15.10;57.82
22181;BME280;11256;50.830;12.834;2023-04-24T02:10:15;96389.06;;;15.08;57.35
22181;BME280;11256;50.830;12.834;2023-04-24T02:15:16;96392.94;;;15.07;57.55
22181;BME280;11256;50.830;12.834;2023-04-24T02:20:17;96384.31;;;15.05;58.01
22181;BME280;11256;50.830;12.834;2023-04-24T02:25:18;96397.47;;;15.03;57.79
22181;BME280;11256;50.830;12.834;2023-04-24T02:30:18;96383.28;;;14.97;57.95
22181;BME280;11256;50.830;12.834;2023-04-24T02:35:19;96394.84;;;14.94;57.64
22181;BME280;11256;50.830;12.834;2023-04-24T02:40:20;96382.25;;;14.90;57.88
22181;BME280;11256;50.830;12.834;2023-04-24T02:45:21;96378.13;;;14.84;57.90
22181;BME280;11256;50.830;12.834;2023-04-24T02:50:21;96369.72;;;14.77;57.62
22181;BME280;11256;50.830;12.834;2023-04-24T02:55:22;96373.13;;;14.74;57.71
22181;BME280;11256;50.830;12.834;2023-04-24T03:00:22;96373.81;;;14.71;57.81
22181;BME280;11256;50.830;12.834;2023-04-24T03:05:22;96382.88;;;14.63;58.13
22181;BME280;11256;50.830;12.834;2023-04-24T03:10:23;96388.22;;;14.59;57.64
22181;BME280;11256;50.830;12.834;2023-04-24T03:15:23;96387.50;;;14.50;57.85
22181;BME280;11256;50.830;12.834;2023-04-24T03:20:24;96389.31;;;14.46;57.80
22181;BME280;11256;50.830;12.834;2023-04-24T03:25:25;96388.53;;;14.46;57.45
22181;BME280;11256;50.830;12.834;2023-04-24T03:30:26;96371.00;;;14.35;57.66
22181;BME280;11256;50.830;12.834;2023-04-24T03:35:31;96369.84;;;14.36;57.91
22181;BME280;11256;50.830;12.834;2023-04-24T03:40:35;96358.25;;;14.27;57.76
22181;BME280;11256;50.830;12.834;2023-04-24T03:45:39;96367.56;;;14.26;58.06
22181;BME280;11256;50.830;12.834;2023-04-24T03:50:40;96382.75;;;14.27;58.13
22181;BME280;11256;50.830;12.834;2023-04-24T03:55:44;96393.91;;;14.22;57.98
22181;BME280;11256;50.830;12.834;2023-04-24T04:00:44;96380.19;;;14.10;58.03
22181;BME280;11256;50.830;12.834;2023-04-24T04:06:05;96383.25;;;14.08;57.86
22181;BME280;11256;50.830;12.834;2023-04-24T04:11:05;96379.06;;;14.11;57.93
22181;BME280;11256;50.830;12.834;2023-04-24T04:16:06;96381.19;;;14.05;58.44
22181;BME280;11256;50.830;12.834;2023-04-24T04:21:06;96384.72;;;14.06;58.30
22181;BME280;11256;50.830;12.834;2023-04-24T04:26:07;96381.59;;;13.95;58.56
22181;BME280;11256;50.830;12.834;2023-04-24T04:31:34;96393.31;;;13.96;58.46
22181;BME280;11256;50.830;12.834;2023-04-24T04:36:41;96385.13;;;13.96;58.79
22181;BME280;11256;50.830;12.834;2023-04-24T04:42:00;96380.34;;;13.93;58.54
22181;BME280;11256;50.830;12.834;2023-04-24T04:47:06;96366.13;;;13.87;58.74
22181;BME280;11256;50.830;12.834;2023-04-24T04:52:10;96360.13;;;13.94;59.07
22181;BME280;11256;50.830;12.834;2023-04-24T04:57:11;96365.34;;;13.87;58.75
22181;BME280;11256;50.830;12.834;2023-04-24T05:02:13;96372.84;;;13.90;59.05
22181;BME280;11256;50.830;12.834;2023-04-24T05:07:13;96387.53;;;13.97;59.68
22181;BME280;11256;50.830;12.834;2023-04-24T05:12:20;96400.66;;;13.95;59.93
22181;BME280;11256;50.830;12.834;2023-04-24T05:17:25;96404.78;;;14.01;59.72
22181;BME280;11256;50.830;12.834;2023-04-24T05:22:28;96407.63;;;14.05;59.67
22181;BME280;11256;50.830;12.834;2023-04-24T05:27:28;96423.13;;;14.13;60.31
22181;BME280;11256;50.830;12.834;2023-04-24T05:32:29;96411.53;;;14.16;60.32
22181;BME280;11256;50.830;12.834;2023-04-24T05:37:30;96415.94;;;14.29;60.14
22181;BME280;11256;50.830;12.834;2023-04-24T05:42:31;96419.44;;;14.50;59.96
22181;BME280;11256;50.830;12.834;2023-04-24T05:47:31;96424.00;;;14.58;60.31
22181;BME280;11256;50.830;12.834;2023-04-24T05:52:32;96433.34;;;14.81;59.84
22181;BME280;11256;50.830;12.834;2023-04-24T05:57:35;96410.31;;;14.90;59.78
22181;BME280;11256;50.830;12.834;2023-04-24T06:02:38;96413.63;;;15.08;59.36
22181;BME280;11256;50.830;12.834;2023-04-24T06:07:39;96424.56;;;15.20;59.01
22181;BME280;11256;50.830;12.834;2023-04-24T06:12:41;96407.94;;;15.13;58.68
22181;BME280;11256;50.830;12.834;2023-04-24T06:17:48;96418.63;;;15.18;58.71
22181;BME280;11256;50.830;12.834;2023-04-24T06:22:50;96404.06;;;15.14;58.56
22181;BME280;11256;50.830;12.834;2023-04-24T06:27:50;96422.72;;;15.24;58.10
22181;BME280;11256;50.830;12.834;2023-04-24T06:32:52;96421.59;;;15.13;58.36
22181;BME280;11256;50.830;12.834;2023-04-24T06:37:53;96418.19;;;15.16;57.97
22181;BME280;11256;50.830;12.834;2023-04-24T06:42:53;96411.91;;;15.15;58.42
22181;BME280;11256;50.830;12.834;2023-04-24T06:47:54;96389.75;;;15.05;58.43
22181;BME280;11256;50.830;12.834;2023-04-24T06:52:54;96410.22;;;15.11;58.21
22181;BME280;11256;50.830;12.834;2023-04-24T06:57:54;96409.66;;;15.17;58.13
22181;BME280;11256;50.830;12.834;2023-04-24T07:02:55;96401.34;;;15.14;58.33
22181;BME280;11256;50.830;12.834;2023-04-24T07:07:56;96411.81;;;15.12;58.54
22181;BME280;11256;50.830;12.834;2023-04-24T07:12:58;96419.78;;;15.17;58.63
22181;BME280;11256;50.830;12.834;2023-04-24T07:17:58;96425.13;;;15.01;58.90
22181;BME280;11256;50.830;12.834;2023-04-24T07:22:59;96426.38;;;15.04;58.46
22181;BME280;11256;50.830;12.834;2023-04-24T07:27:59;96423.16;;;15.02;58.30
22181;BME280;11256;50.830;12.834;2023-04-24T07:32:59;96411.34;;;14.98;58.16
22181;BME280;11256;50.830;12.834;2023-04-24T07:38:00;96426.59;;;15.11;58.39
22181;BME280;11256;50.830;12.834;2023-04-24T07:43:00;96433.63;;;15.12;58.34
22181;BME280;11256;50.830;12.834;2023-04-24T07:48:01;96427.84;;;15.13;58.16
22181;BME280;11256;50.830;12.834;2023-04-24T07:53:01;96435.47;;;15.20;58.52
22181;BME280;11256;50.830;12.834;2023-04-24T07:58:02;96448.88;;;15.25;58.00
22181;BME280;11256;50.830;12.834;2023-04-24T08:03:02;96445.47;;;15.16;58.33
22181;BME280;11256;50.830;12.834;2023-04-24T08:08:03;96438.53;;;15.18;57.96
22181;BME280;11256;50.830;12.834;2023-04-24T08:13:03;96452.84;;;15.27;58.07
22181;BME280;11256;50.830;12.834;2023-04-24T08:18:03;96465.31;;;15.37;58.08
22181;BME280;11256;50.830;12.834;2023-04-24T08:23:04;96458.94;;;15.45;57.81
22181;BME280;11256;50.830;12.834;2023-04-24T08:28:05;96452.81;;;15.48;57.67
22181;BME280;11256;50.830;12.834;2023-04-24T08:33:06;96456.91;;;15.54;57.98
22181;BME280;11256;50.830;12.834;2023-04-24T08:38:07;96455.75;;;15.67;57.71
22181;BME280;11256;50.830;12.834;2023-04-24T08:43:07;96463.59;;;15.68;57.54
22181;BME280;11256;50.830;12.834;2023-04-24T08:48:09;96459.59;;;15.78;57.60
22181;BME280;11256;50.830;12.834;2023-04-24T08:53:10;96454.22;;;15.81;57.25
22181;BME280;11256;50.830;12.834;2023-04-24T08:58:10;96456.97;;;15.93;57.19
22181;BME280;11256;50.830;12.834;2023-04-24T09:03:10;96468.69;;;15.94;57.15
22181;BME280;11256;50.830;12.834;2023-04-24T09:08:12;96456.16;;;15.93;57.06
22181;BME280;11256;50.830;12.834;2023-04-24T09:13:14;96457.63;;;16.02;56.86
22181;BME280;11256;50.830;12.834;2023-04-24T09:18:14;96445.00;;;15.98;56.70
22181;BME280;11256;50.830;12.834;2023-04-24T09:23:17;96449.41;;;16.02;56.62
22181;BME280;11256;50.830;12.834;2023-04-24T09:28:17;96448.97;;;16.00;56.30
22181;BME280;11256;50.830;12.834;2023-04-24T09:33:18;96454.53;;;16.04;56.04
22181;BME280;11256;50.830;12.834;2023-04-24T09:38:22;96456.13;;;16.05;56.32
22181;BME280;11256;50.830;12.834;2023-04-24T09:43:30;96455.44;;;16.08;56.39
22181;BME280;11256;50.830;12.834;2023-04-24T09:48:37;96469.66;;;16.13;56.33
22181;BME280;11256;50.830;12.834;2023-04-24T09:53:38;96470.47;;;16.14;56.26
22181;BME280;11256;50.830;12.834;2023-04-24T09:58:46;96467.47;;;16.31;55.81
22181;BME280;11256;50.830;12.834;2023-04-24T10:03:46;96483.31;;;16.65;55.27
22181;BME280;11256;50.830;12.834;2023-04-24T10:08:47;96469.19;;;17.06;54.01
22181;BME280;11256;50.830;12.834;2023-04-24T10:13:48;96469.44;;;17.44;53.47
22181;BME280;11256;50.830;12.834;2023-04-24T10:18:49;96474.00;;;17.71;52.77
22181;BME280;11256;50.830;12.834;2023-04-24T10:23:50;96480.41;;;17.94;51.01
22181;BME280;11256;50.830;12.834;2023-04-24T10:28:52;96479.06;;;18.03;50.79
22181;BME280;11256;50.830;12.834;2023-04-24T10:33:53;96483.59;;;17.96;49.25
22181;BME280;11256;50.830;12.834;2023-04-24T10:38:55;96484.34;;;18.12;49.82
22181;BME280;11256;50.830;12.834;2023-04-24T10:44:10;96475.56;;;18.56;47.28
22181;BME280;11256;50.830;12.834;2023-04-24T10:49:11;96484.66;;;18.60;47.65
22181;BME280;11256;50.830;12.834;2023-04-24T10:54:33;96487.81;;;18.62;45.48
22181;BME280;11256;50.830;12.834;2023-04-24T10:59:34;96494.69;;;18.53;46.88
22181;BME280;11256;50.830;12.834;2023-04-24T11:04:35;96482.19;;;18.55;46.23
22181;BME280;11256;50.830;12.834;2023-04-24T11:09:36;96473.28;;;18.62;47.00
22181;BME280;11256;50.830;12.834;2023-04-24T11:20:01;96506.13;;;18.74;45.60
22181;BME280;11256;50.830;12.834;2023-04-24T11:25:03;96508.72;;;18.86;44.83
22181;BME280;11256;50.830;12.834;2023-04-24T11:30:06;96498.16;;;18.69;44.65
22181;BME280;11256;50.830;12.834;2023-04-24T11:35:13;96508.63;;;18.82;44.48
22181;BME280;11256;50.830;12.834;2023-04-24T11:40:14;96538.09;;;18.85;44.07
22181;BME280;11256;50.830;12.834;2023-04-24T11:50:24;96523.13;;;19.40;42.48
22181;BME280;11256;50.830;12.834;2023-04-24T11:55:27;96530.06;;;19.34;41.67
22181;BME280;11256;50.830;12.834;2023-04-24T12:00:30;96493.19;;;19.35;40.93
22181;BME280;11256;50.830;12.834;2023-04-24T12:05:31;96538.56;;;19.70;40.18
22181;BME280;11256;50.830;12.834;2023-04-24T12:10:32;96530.25;;;19.44;41.10
22181;BME280;11256;50.830;12.834;2023-04-24T12:15:33;96533.25;;;19.36;41.09
22181;BME280;11256;50.830;12.834;2023-04-24T12:20:35;96526.41;;;19.26;40.06
22181;BME280;11256;50.830;12.834;2023-04-24T12:25:35;96509.97;;;19.30;41.14
22181;BME280;11256;50.830;12.834;2023-04-24T12:30:44;96528.41;;;19.29;40.43
22181;BME280;11256;50.830;12.834;2023-04-24T12:35:45;96527.44;;;19.63;39.51
22181;BME280;11256;50.830;12.834;2023-04-24T12:40:45;96529.72;;;19.58;40.07
22181;BME280;11256;50.830;12.834;2023-04-24T12:45:48;96524.22;;;19.58;39.22
22181;BME280;11256;50.830;12.834;2023-04-24T12:50:48;96524.81;;;19.48;40.03
22181;BME280;11256;50.830;12.834;2023-04-24T12:55:49;96515.09;;;19.54;39.91
22181;BME280;11256;50.830;12.834;2023-04-24T13:00:53;96516.53;;;19.67;40.06
22181;BME280;11256;50.830;12.834;2023-04-24T13:05:53;96519.13;;;19.60;39.56
22181;BME280;11256;50.830;12.834;2023-04-24T13:10:53;96506.44;;;19.52;39.79
22181;BME280;11256;50.830;12.834;2023-04-24T13:15:54;96519.59;;;19.62;40.09
22181;BME280;11256;50.830;12.834;2023-04-24T13:20:55;96501.50;;;19.61;39.25
22181;BME280;11256;50.830;12.834;2023-04-24T13:25:55;96514.34;;;19.79;39.45
22181;BME280;11256;50.830;12.834;2023-04-24T13:30:58;96525.69;;;19.74;39.15
22181;BME280;11256;50.830;12.834;2023-04-24T13:35:58;96504.38;;;19.68;39.28
22181;BME280;11256;50.830;12.834;2023-04-24T13:40:59;96502.13;;;19.51;39.05
22181;BME280;11256;50.830;12.834;2023-04-24T13:46:00;96505.44;;;19.63;39.18
22181;BME280;11256;50.830;12.834;2023-04-24T13:51:03;96510.53;;;19.84;40.12
22181;BME280;11256;50.830;12.834;2023-04-24T13:56:03;96513.59;;;19.79;39.75
22181;BME280;11256;50.830;12.834;2023-04-24T14:01:04;96515.06;;;19.73;39.41
22181;BME280;11256;50.830;12.834;2023-04-24T14:06:04;96501.41;;;19.80;39.17
22181;BME280;11256;50.830;12.834;2023-04-24T14:11:06;96497.94;;;19.83;39.05
22181;BME280;11256;50.830;12.834;2023-04-24T14:16:07;96506.50;;;19.78;39.77
22181;BME280;11256;50.830;12.834;2023-04-24T14:21:07;96515.16;;;19.80;40.05
22181;BME280;11256;50.830;12.834;2023-04-24T14:26:08;96511.69;;;19.83;39.74
22181;BME280;11256;50.830;12.834;2023-04-24T14:31:08;96495.66;;;19.66;40.14
22181;BME280;11256;50.830;12.834;2023-04-24T14:36:09;96512.66;;;19.71;39.96
22181;BME280;11256;50.830;12.834;2023-04-24T14:41:09;96510.88;;;19.60;40.23
22181;BME280;11256;50.830;12.834;2023-04-24T14:46:11;96509.56;;;19.50;40.06
22181;BME280;11256;50.830;12.834;2023-04-24T14:51:12;96515.03;;;19.28;39.58
22181;BME280;11256;50.830;12.834;2023-04-24T14:56:12;96497.47;;;19.13;40.06
22181;BME280;11256;50.830;12.834;2023-04-24T15:01:13;96511.88;;;19.07;39.88
22181;BME280;11256;50.830;12.834;2023-04-24T15:06:13;96530.22;;;19.03;39.47
22181;BME280;11256;50.830;12.834;2023-04-24T15:11:13;96527.84;;;19.01;39.85
22181;BME280;11256;50.830;12.834;2023-04-24T15:16:14;96532.84;;;18.96;39.48
22181;BME280;11256;50.830;12.834;2023-04-24T15:21:14;96544.81;;;18.88;39.28
22181;BME280;11256;50.830;12.834;2023-04-24T15:26:15;96555.66;;;18.81;39.20
22181;BME280;11256;50.830;12.834;2023-04-24T15:31:15;96536.13;;;18.67;38.70
22181;BME280;11256;50.830;12.834;2023-04-24T15:36:16;96553.63;;;18.59;39.16
22181;BME280;11256;50.830;12.834;2023-04-24T15:41:17;96572.69;;;18.52;39.25
22181;BME280;11256;50.830;12.834;2023-04-24T15:46:17;96571.47;;;18.18;39.59
22181;BME280;11256;50.830;12.834;2023-04-24T15:51:17;96600.69;;;18.11;39.80
22181;BME280;11256;50.830;12.834;2023-04-24T15:56:18;96613.25;;;17.96;40.18
22181;BME280;11256;50.830;12.834;2023-04-24T16:01:19;96612.34;;;17.92;40.55
22181;BME280;11256;50.830;12.834;2023-04-24T16:06:19;96616.69;;;17.78;41.02
22181;BME280;11256;50.830;12.834;2023-04-24T16:11:20;96602.91;;;17.74;41.42
22181;BME280;11256;50.830;12.834;2023-04-24T16:16:20;96605.25;;;17.60;41.60
22181;BME280;11256;50.830;12.834;2023-04-24T16:21:20;96614.03;;;17.66;41.90
22181;BME280;11256;50.830;12.834;2023-04-24T16:26:21;96622.34;;;17.69;42.01
22181;BME280;11256;50.830;12.834;2023-04-24T16:31:21;96620.00;;;17.56;42.49
22181;BME280;11256;50.830;12.834;2023-04-24T16:36:22;96630.88;;;17.52;43.76
22181;BME280;11256;50.830;12.834;2023-04-24T16:41:22;96639.34;;;17.47;43.44
22181;BME280;11256;50.830;12.834;2023-04-24T16:46:23;96630.56;;;17.42;44.29
22181;BME280;11256;50.830;12.834;2023-04-24T16:51:23;96637.44;;;17.36;45.15
22181;BME280;11256;50.830;12.834;2023-04-24T16:56:23;96636.44;;;17.40;45.30
22181;BME280;11256;50.830;12.834;2023-04-24T17:01:23;96641.53;;;17.42;45.21
22181;BME280;11256;50.830;12.834;2023-04-24T17:06:24;96639.72;;;17.34;45.42
22181;BME280;11256;50.830;12.834;2023-04-24T17:11:26;96640.22;;;17.24;45.21
22181;BME280;11256;50.830;12.834;2023-04-24T17:16:27;96649.41;;;17.16;45.40
22181;BME280;11256;50.830;12.834;2023-04-24T17:21:28;96646.78;;;17.07;44.97
22181;BME280;11256;50.830;12.834;2023-04-24T17:26:28;96640.91;;;16.93;45.35
22181;BME280;11256;50.830;12.834;2023-04-24T17:31:31;96651.75;;;16.90;45.19
22181;BME280;11256;50.830;12.834;2023-04-24T17:36:31;96656.69;;;16.72;45.46
22181;BME280;11256;50.830;12.834;2023-04-24T17:41:32;96658.63;;;16.60;45.63
22181;BME280;11256;50.830;12.834;2023-04-24T17:46:33;96672.53;;;16.55;46.57
22181;BME280;11256;50.830;12.834;2023-04-24T17:51:33;96666.84;;;16.48;46.28
22181;BME280;11256;50.830;12.834;2023-04-24T17:56:34;96669.56;;;16.36;46.29
22181;BME280;11256;50.830;12.834;2023-04-24T18:01:34;96687.91;;;16.23;46.46
22181;BME280;11256;50.830;12.834;2023-04-24T18:06:34;96707.38;;;16.22;46.77
22181;BME280;11256;50.830;12.834;2023-04-24T18:11:35;96711.91;;;16.06;47.40
22181;BME280;11256;50.830;12.834;2023-04-24T18:16:35;96717.47;;;15.97;47.20
22181;BME280;11256;50.830;12.834;2023-04-24T18:21:35;96718.81;;;15.91;47.54
22181;BME280;11256;50.830;12.834;2023-04-24T18:26:36;96730.75;;;15.75;47.53
22181;BME280;11256;50.830;12.834;2023-04-24T18:31:36;96729.56;;;15.64;47.98
22181;BME280;11256;50.830;12.834;2023-04-24T18:36:36;96734.94;;;15.52;48.11
22181;BME280;11256;50.830;12.834;2023-04-24T18:41:37;96734.91;;;15.40;48.27
22181;BME280;11256;50.830;12.834;2023-04-24T18:46:37;96757.31;;;15.33;48.46
22181;BME280;11256;50.830;12.834;2023-04-24T18:51:40;96762.78;;;15.25;48.34
22181;BME280;11256;50.830;12.834;2023-04-24T18:56:40;96758.84;;;15.14;48.48
22181;BME280;11256;50.830;12.834;2023-04-24T19:01:41;96762.63;;;15.01;48.70
22181;BME280;11256;50.830;12.834;2023-04-24T19:06:41;96784.28;;;15.06;48.92
22181;BME280;11256;50.830;12.834;2023-04-24T19:11:41;96796.50;;;15.00;48.77
22181;BME280;11256;50.830;12.834;2023-04-24T19:16:42;96802.34;;;14.90;48.89
22181;BME280;11256;50.830;12.834;2023-04-24T19:21:43;96793.56;;;14.84;48.99
22181;BME280;11256;50.830;12.834;2023-04-24T19:26:44;96799.53;;;14.78;49.26
22181;BME280;11256;50.830;12.834;2023-04-24T19:31:45;96779.22;;;14.67;49.11
22181;BME280;11256;50.830;12.834;2023-04-24T19:36:45;96800.06;;;14.63;49.13
22181;BME280;11256;50.830;12.834;2023-04-24T19:41:46;96793.19;;;14.57;49.37
22181;BME280;11256;50.830;12.834;2023-04-24T19:46:46;96803.47;;;14.51;49.41
22181;BME280;11256;50.830;12.834;2023-04-24T19:51:46;96806.72;;;14.45;49.44
22181;BME280;11256;50.830;12.834;2023-04-24T19:56:47;96806.44;;;14.38;49.67
22181;BME280;11256;50.830;12.834;2023-04-24T20:01:47;96805.16;;;14.35;49.71
22181;BME280;11256;50.830;12.834;2023-04-24T20:06:48;96804.38;;;14.26;49.91
22181;BME280;11256;50.830;12.834;2023-04-24T20:11:48;96793.97;;;14.20;49.59
22181;BME280;11256;50.830;12.834;2023-04-24T20:16:50;96798.44;;;14.16;49.93
22181;BME280;11256;50.830;12.834;2023-04-24T20:21:50;96790.94;;;14.04;49.96
22181;BME280;11256;50.830;12.834;2023-04-24T20:26:51;96802.28;;;14.15;50.16
22181;BME280;11256;50.830;12.834;2023-04-24T20:31:51;96800.09;;;14.08;49.92
22181;BME280;11256;50.830;12.834;2023-04-24T20:36:52;96795.75;;;13.99;50.03
22181;BME280;11256;50.830;12.834;2023-04-24T20:41:52;96805.06;;;13.98;50.36
22181;BME280;11256;50.830;12.834;2023-04-24T20:46:52;96809.22;;;13.95;50.14
22181;BME280;11256;50.830;12.834;2023-04-24T20:51:53;96815.34;;;13.92;50.15
22181;BME280;11256;50.830;12.834;2023-04-24T20:56:53;96803.31;;;13.85;50.20
22181;BME280;11256;50.830;12.834;2023-04-24T21:01:54;96794.34;;;13.76;50.45
22181;BME280;11256;50.830;12.834;2023-04-24T21:06:54;96798.53;;;13.73;50.48
22181;BME280;11256;50.830;12.834;2023-04-24T21:11:54;96786.19;;;13.67;50.31
22181;BME280;11256;50.830;12.834;2023-04-24T21:16:56;96780.31;;;13.57;50.59
22181;BME280;11256;50.830;12.834;2023-04-24T21:21:58;96791.50;;;13.55;50.94
22181;BME280;11256;50.830;12.834;2023-04-24T21:26:58;96800.28;;;13.61;50.72
22181;BME280;11256;50.830;12.834;2023-04-24T21:31:58;96790.53;;;13.51;51.06
22181;BME280;11256;50.830;12.834;2023-04-24T21:36:59;96806.56;;;13.53;50.84
22181;BME280;11256;50.830;12.834;2023-04-24T21:41:59;96788.94;;;13.42;51.20
22181;BME280;11256;50.830;12.834;2023-04-24T21:47:00;96792.28;;;13.39;51.26
22181;BME280;11256;50.830;12.834;2023-04-24T21:52:00;96778.22;;;13.28;51.36
22181;BME280;11256;50.830;12.834;2023-04-24T21:57:00;96794.38;;;13.25;51.57
22181;BME280;11256;50.830;12.834;2023-04-24T22:02:01;96786.38;;;13.20;51.63
22181;BME280;11256;50.830;12.834;2023-04-24T22:07:01;96795.31;;;13.12;51.31
22181;BME280;11256;50.830;12.834;2023-04-24T22:12:03;96780.91;;;13.03;51.84
22181;BME280;11256;50.830;12.834;2023-04-24T22:17:04;96793.53;;;12.99;51.77
22181;BME280;11256;50.830;12.834;2023-04-24T22:22:04;96784.06;;;12.88;51.80
22181;BME280;11256;50.830;12.834;2023-04-24T22:27:04;96786.91;;;12.83;52.02
22181;BME280;11256;50.830;12.834;2023-04-24T22:32:05;96786.59;;;12.84;51.68
22181;BME280;11256;50.830;12.834;2023-04-24T22:37:05;96780.78;;;12.69;52.42
22181;BME280;11256;50.830;12.834;2023-04-24T22:42:07;96788.81;;;12.74;51.92
22181;BME280;11256;50.830;12.834;2023-04-24T22:47:07;96789.63;;;12.74;52.14
22181;BME280;11256;50.830;12.834;2023-04-24T22:52:08;96791.66;;;12.69;52.13
22181;BME280;11256;50.830;12.834;2023-04-24T22:57:08;96789.75;;;12.61;52.26
22181;BME280;11256;50.830;12.834;2023-04-24T23:02:09;96791.31;;;12.53;52.24
22181;BME280;11256;50.830;12.834;2023-04-24T23:07:09;96793.53;;;12.43;52.03
22181;BME280;11256;50.830;12.834;2023-04-24T23:12:10;96797.97;;;12.39;53.06
22181;BME280;11256;50.830;12.834;2023-04-24T23:17:10;96793.63;;;12.29;52.41
22181;BME280;11256;50.830;12.834;2023-04-24T23:22:10;96793.06;;;12.19;52.62
22181;BME280;11256;50.830;12.834;2023-04-24T23:27:11;96782.47;;;12.09;52.91
22181;BME280;11256;50.830;12.834;2023-04-24T23:32:11;96785.34;;;12.04;52.91
22181;BME280;11256;50.830;12.834;2023-04-24T23:37:11;96774.25;;;11.92;52.97
22181;BME280;11256;50.830;12.834;2023-04-24T23:42:12;96782.84;;;11.85;52.77
22181;BME280;11256;50.830;12.834;2023-04-24T23:47:12;96776.25;;;11.78;53.15
22181;BME280;11256;50.830;12.834;2023-04-24T23:52:12;96768.47;;;11.63;52.94
22181;BME280;11256;50.830;12.834;2023-04-24T23:57:13;96764.88;;;11.54;53.37
